Impacts METAR Board
IDs:

KTPA - Tampa Intl Arpt, FL, US

Updated at: 0200 UTC 12 Dec 2018
Potential Impact None Slight Moderate High
Time 11/14Z 11/15Z 11/16Z 11/17Z 11/18Z 11/19Z 11/20Z 11/21Z 11/22Z 11/23Z 12/00Z 12/01Z 12/02Z
Temp50 51 54 56 57 58 57 58 56 52 50 49 48
Dewpt43 42 42 42 41 41 41 41 41 42 43 43 43
Altim30.33 30.35 30.34 30.33 30.30 30.27 30.26 30.26 30.28 30.29 30.30 30.32 30.32
VIS10 10 10 10 10 10 10 10 10 10 10 10 10
CIG32 40 -- -- -- -- -- -- -- -- -- -- --
CoverBKNBKNSCTSCTSCTFEWFEWFEWCLRFEWCLRCLRCLR
FltCatVFRVFRVFRVFRVFRVFRVFRVFRVFRVFRVFRVFRVFR
WX--------------------------
WDir10350360330330310350360320310340340360
WSpd8 14 10 13 9 11 10 8 6 6 7 4 3
WGst-- -- 18 18 17 23 -- -- -- -- -- -- --
Raw hourly METARs
KTPA 111353Z 01008KT 10SM BKN032 BKN045 10/06 A3033 RMK AO2 SLP270 T01000061
KTPA 111453Z 35014KT 10SM BKN040 11/06 A3035 RMK AO2 SLP276 T01060056
KTPA 111553Z 36010G18KT 10SM SCT024 SCT040 12/06 A3034 RMK AO2 SLP272 T01220056
KTPA 111653Z 33013G18KT 10SM FEW025 SCT035 13/06 A3033 RMK AO2 SLP270 T01330056
KTPA 111753Z 33009G17KT 10SM SCT030 14/05 A3030 RMK AO2 SLP260 T01390050 10139 20089 58016
KTPA 111853Z 31011G23KT 10SM FEW035 14/05 A3027 RMK AO2 SLP250 T01440050
KTPA 111953Z 35010KT 10SM FEW035 14/05 A3026 RMK AO2 SLP246 T01390050
KTPA 112053Z 36008KT 10SM FEW035 14/05 A3026 RMK AO2 SLP248 T01440050 55012
KTPA 112153Z 32006KT 10SM CLR 13/05 A3028 RMK AO2 SLP254 T01330050
KTPA 112253Z 31006KT 10SM FEW250 11/06 A3029 RMK AO2 SLP257 T01110056
KTPA 112353Z 34007KT 10SM CLR 10/06 A3030 RMK AO2 SLP262 T01000061 10144 20100 51014
KTPA 120053Z 34004KT 10SM CLR 09/06 A3032 RMK AO2 SLP266 T00940061
KTPA 120153Z 36003KT 10SM CLR 09/06 A3032 RMK AO2 SLP268 T00890061



Page loaded:  02:48 UTC  |   06:48 PM Pacific  |   07:48 PM Mountain  |   08:48 PM Central  |   09:48 PM Eastern

 

ADVISORIES

FORECASTS

FORECASTS

OBSERVATIONS

USER TOOLS

ABOUT US